sensor_id;sensor_type;location;lat;lon;timestamp;P1;durP1;ratioP1;P2;durP2;ratioP2
19842;SDS011;10082;51.038;6.992;2022-12-24T00:00:38;14.80;;;4.20;;
19842;SDS011;10082;51.038;6.992;2022-12-24T00:03:05;14.43;;;3.80;;
19842;SDS011;10082;51.038;6.992;2022-12-24T00:05:33;15.43;;;4.05;;
19842;SDS011;10082;51.038;6.992;2022-12-24T00:07:59;14.00;;;3.83;;
19842;SDS011;10082;51.038;6.992;2022-12-24T00:10:26;17.27;;;4.68;;
19842;SDS011;10082;51.038;6.992;2022-12-24T00:15:40;17.27;;;4.90;;
19842;SDS011;10082;51.038;6.992;2022-12-24T00:18:07;15.18;;;4.70;;
19842;SDS011;10082;51.038;6.992;2022-12-24T00:20:34;15.05;;;4.70;;
19842;SDS011;10082;51.038;6.992;2022-12-24T00:23:01;17.17;;;4.25;;
19842;SDS011;10082;51.038;6.992;2022-12-24T00:25:28;14.77;;;4.40;;
19842;SDS011;10082;51.038;6.992;2022-12-24T00:27:55;12.90;;;4.00;;
19842;SDS011;10082;51.038;6.992;2022-12-24T00:30:22;12.45;;;4.70;;
19842;SDS011;10082;51.038;6.992;2022-12-24T00:32:51;16.90;;;4.55;;
19842;SDS011;10082;51.038;6.992;2022-12-24T00:35:18;15.10;;;4.18;;
19842;SDS011;10082;51.038;6.992;2022-12-24T00:37:45;14.40;;;4.20;;
19842;SDS011;10082;51.038;6.992;2022-12-24T00:40:14;15.70;;;4.43;;
19842;SDS011;10082;51.038;6.992;2022-12-24T00:42:41;19.52;;;5.32;;
19842;SDS011;10082;51.038;6.992;2022-12-24T00:45:09;17.35;;;3.95;;
19842;SDS011;10082;51.038;6.992;2022-12-24T00:47:37;18.17;;;4.85;;
19842;SDS011;10082;51.038;6.992;2022-12-24T00:50:06;18.30;;;4.57;;
19842;SDS011;10082;51.038;6.992;2022-12-24T00:52:34;19.70;;;4.50;;
19842;SDS011;10082;51.038;6.992;2022-12-24T00:55:01;15.55;;;4.20;;
19842;SDS011;10082;51.038;6.992;2022-12-24T00:57:28;20.35;;;4.80;;
19842;SDS011;10082;51.038;6.992;2022-12-24T00:59:55;15.43;;;4.55;;
19842;SDS011;10082;51.038;6.992;2022-12-24T01:02:22;15.68;;;4.80;;
19842;SDS011;10082;51.038;6.992;2022-12-24T01:04:50;18.38;;;4.25;;
19842;SDS011;10082;51.038;6.992;2022-12-24T01:07:36;16.52;;;4.20;;
19842;SDS011;10082;51.038;6.992;2022-12-24T01:10:04;18.67;;;4.32;;
19842;SDS011;10082;51.038;6.992;2022-12-24T01:12:32;17.45;;;4.65;;
19842;SDS011;10082;51.038;6.992;2022-12-24T01:14:59;15.05;;;4.47;;
19842;SDS011;10082;51.038;6.992;2022-12-24T01:17:26;20.88;;;4.95;;
19842;SDS011;10082;51.038;6.992;2022-12-24T01:19:53;17.15;;;3.65;;
19842;SDS011;10082;51.038;6.992;2022-12-24T01:22:20;16.23;;;4.15;;
19842;SDS011;10082;51.038;6.992;2022-12-24T01:24:49;14.00;;;3.88;;
19842;SDS011;10082;51.038;6.992;2022-12-24T01:27:15;11.05;;;4.15;;
19842;SDS011;10082;51.038;6.992;2022-12-24T01:29:42;13.60;;;3.70;;
19842;SDS011;10082;51.038;6.992;2022-12-24T01:32:09;15.98;;;4.10;;
19842;SDS011;10082;51.038;6.992;2022-12-24T01:34:36;17.02;;;3.90;;
19842;SDS011;10082;51.038;6.992;2022-12-24T01:37:03;11.00;;;3.90;;
19842;SDS011;10082;51.038;6.992;2022-12-24T01:39:31;17.52;;;3.95;;
19842;SDS011;10082;51.038;6.992;2022-12-24T01:42:00;12.90;;;3.88;;
19842;SDS011;10082;51.038;6.992;2022-12-24T01:44:46;16.38;;;4.20;;
19842;SDS011;10082;51.038;6.992;2022-12-24T01:47:17;15.48;;;4.82;;
19842;SDS011;10082;51.038;6.992;2022-12-24T01:49:48;15.38;;;3.67;;
19842;SDS011;10082;51.038;6.992;2022-12-24T01:52:20;17.23;;;4.15;;
19842;SDS011;10082;51.038;6.992;2022-12-24T01:54:49;14.20;;;4.30;;
19842;SDS011;10082;51.038;6.992;2022-12-24T01:57:23;12.55;;;3.53;;
19842;SDS011;10082;51.038;6.992;2022-12-24T01:59:53;12.77;;;3.83;;
19842;SDS011;10082;51.038;6.992;2022-12-24T02:02:24;15.90;;;4.30;;
19842;SDS011;10082;51.038;6.992;2022-12-24T02:04:54;13.80;;;4.03;;
19842;SDS011;10082;51.038;6.992;2022-12-24T02:07:27;14.52;;;3.67;;
19842;SDS011;10082;51.038;6.992;2022-12-24T02:09:56;14.80;;;4.18;;
19842;SDS011;10082;51.038;6.992;2022-12-24T02:12:27;16.73;;;4.50;;
19842;SDS011;10082;51.038;6.992;2022-12-24T02:17:44;14.52;;;3.92;;
19842;SDS011;10082;51.038;6.992;2022-12-24T02:23:21;17.63;;;4.03;;
19842;SDS011;10082;51.038;6.992;2022-12-24T02:26:13;11.80;;;3.28;;
19842;SDS011;10082;51.038;6.992;2022-12-24T02:28:57;13.95;;;3.55;;
19842;SDS011;10082;51.038;6.992;2022-12-24T02:31:42;15.48;;;3.90;;
19842;SDS011;10082;51.038;6.992;2022-12-24T02:34:14;15.38;;;4.20;;
19842;SDS011;10082;51.038;6.992;2022-12-24T02:36:51;15.68;;;4.32;;
19842;SDS011;10082;51.038;6.992;2022-12-24T02:39:25;16.75;;;5.07;;
19842;SDS011;10082;51.038;6.992;2022-12-24T02:41:57;18.60;;;4.43;;
19842;SDS011;10082;51.038;6.992;2022-12-24T02:44:35;13.65;;;3.75;;
19842;SDS011;10082;51.038;6.992;2022-12-24T02:47:08;13.07;;;4.03;;
19842;SDS011;10082;51.038;6.992;2022-12-24T02:49:36;12.98;;;3.75;;
19842;SDS011;10082;51.038;6.992;2022-12-24T02:52:03;15.43;;;4.53;;
19842;SDS011;10082;51.038;6.992;2022-12-24T02:54:30;15.90;;;3.95;;
19842;SDS011;10082;51.038;6.992;2022-12-24T02:57:02;8.73;;;3.20;;
19842;SDS011;10082;51.038;6.992;2022-12-24T03:02:32;13.00;;;4.20;;
19842;SDS011;10082;51.038;6.992;2022-12-24T03:08:13;15.60;;;4.55;;
19842;SDS011;10082;51.038;6.992;2022-12-24T03:10:51;14.13;;;4.28;;
19842;SDS011;10082;51.038;6.992;2022-12-24T03:13:22;14.50;;;4.05;;
19842;SDS011;10082;51.038;6.992;2022-12-24T03:15:51;12.85;;;4.13;;
19842;SDS011;10082;51.038;6.992;2022-12-24T03:18:20;13.95;;;3.83;;
19842;SDS011;10082;51.038;6.992;2022-12-24T03:20:49;13.27;;;4.00;;
19842;SDS011;10082;51.038;6.992;2022-12-24T03:23:21;10.70;;;3.50;;
19842;SDS011;10082;51.038;6.992;2022-12-24T03:25:55;16.92;;;4.10;;
19842;SDS011;10082;51.038;6.992;2022-12-24T03:28:24;14.57;;;3.83;;
19842;SDS011;10082;51.038;6.992;2022-12-24T03:30:55;15.55;;;4.22;;
19842;SDS011;10082;51.038;6.992;2022-12-24T03:33:27;13.57;;;3.72;;
19842;SDS011;10082;51.038;6.992;2022-12-24T03:35:55;15.65;;;3.58;;
19842;SDS011;10082;51.038;6.992;2022-12-24T03:38:22;12.95;;;3.70;;
19842;SDS011;10082;51.038;6.992;2022-12-24T03:40:49;8.45;;;3.05;;
19842;SDS011;10082;51.038;6.992;2022-12-24T03:43:16;10.25;;;2.92;;
19842;SDS011;10082;51.038;6.992;2022-12-24T03:45:43;7.13;;;3.00;;
19842;SDS011;10082;51.038;6.992;2022-12-24T03:48:10;7.53;;;2.78;;
19842;SDS011;10082;51.038;6.992;2022-12-24T03:50:39;7.43;;;3.00;;
19842;SDS011;10082;51.038;6.992;2022-12-24T03:53:06;8.85;;;2.30;;
19842;SDS011;10082;51.038;6.992;2022-12-24T03:55:33;8.63;;;3.15;;
19842;SDS011;10082;51.038;6.992;2022-12-24T03:58:00;9.35;;;2.85;;
19842;SDS011;10082;51.038;6.992;2022-12-24T04:00:27;11.10;;;2.90;;
19842;SDS011;10082;51.038;6.992;2022-12-24T04:02:54;6.88;;;2.60;;
19842;SDS011;10082;51.038;6.992;2022-12-24T04:05:21;7.28;;;2.13;;
19842;SDS011;10082;51.038;6.992;2022-12-24T04:07:49;8.55;;;2.60;;
19842;SDS011;10082;51.038;6.992;2022-12-24T04:10:16;9.93;;;2.50;;
19842;SDS011;10082;51.038;6.992;2022-12-24T04:12:43;7.57;;;2.03;;
19842;SDS011;10082;51.038;6.992;2022-12-24T04:15:10;6.95;;;2.15;;
19842;SDS011;10082;51.038;6.992;2022-12-24T04:17:37;4.68;;;2.30;;
19842;SDS011;10082;51.038;6.992;2022-12-24T04:20:05;6.60;;;2.10;;
19842;SDS011;10082;51.038;6.992;2022-12-24T04:22:33;4.63;;;1.80;;
19842;SDS011;10082;51.038;6.992;2022-12-24T04:25:01;5.97;;;1.63;;
19842;SDS011;10082;51.038;6.992;2022-12-24T04:27:28;5.78;;;1.98;;
19842;SDS011;10082;51.038;6.992;2022-12-24T04:29:55;7.65;;;2.33;;
19842;SDS011;10082;51.038;6.992;2022-12-24T04:32:23;6.13;;;1.75;;
19842;SDS011;10082;51.038;6.992;2022-12-24T04:34:51;7.60;;;2.00;;
19842;SDS011;10082;51.038;6.992;2022-12-24T04:37:18;5.90;;;2.10;;
19842;SDS011;10082;51.038;6.992;2022-12-24T04:39:51;7.13;;;2.33;;
19842;SDS011;10082;51.038;6.992;2022-12-24T04:42:19;7.38;;;1.90;;
19842;SDS011;10082;51.038;6.992;2022-12-24T04:44:46;6.20;;;2.00;;
19842;SDS011;10082;51.038;6.992;2022-12-24T04:47:13;5.28;;;1.80;;
19842;SDS011;10082;51.038;6.992;2022-12-24T04:49:40;5.40;;;2.05;;
19842;SDS011;10082;51.038;6.992;2022-12-24T04:52:07;7.20;;;2.30;;
19842;SDS011;10082;51.038;6.992;2022-12-24T04:54:34;9.10;;;2.55;;
19842;SDS011;10082;51.038;6.992;2022-12-24T04:57:01;5.28;;;2.10;;
19842;SDS011;10082;51.038;6.992;2022-12-24T04:59:30;6.22;;;2.40;;
19842;SDS011;10082;51.038;6.992;2022-12-24T05:05:44;6.75;;;2.00;;
19842;SDS011;10082;51.038;6.992;2022-12-24T05:08:11;7.55;;;2.60;;
19842;SDS011;10082;51.038;6.992;2022-12-24T05:10:39;8.60;;;2.50;;
19842;SDS011;10082;51.038;6.992;2022-12-24T05:13:06;8.70;;;3.25;;
19842;SDS011;10082;51.038;6.992;2022-12-24T05:15:34;7.03;;;2.25;;
19842;SDS011;10082;51.038;6.992;2022-12-24T05:18:01;9.50;;;2.85;;
19842;SDS011;10082;51.038;6.992;2022-12-24T05:20:28;7.93;;;2.78;;
19842;SDS011;10082;51.038;6.992;2022-12-24T05:22:56;8.68;;;2.40;;
19842;SDS011;10082;51.038;6.992;2022-12-24T05:25:48;7.15;;;2.50;;
19842;SDS011;10082;51.038;6.992;2022-12-24T05:28:33;9.05;;;2.78;;
19842;SDS011;10082;51.038;6.992;2022-12-24T05:31:01;8.07;;;2.58;;
19842;SDS011;10082;51.038;6.992;2022-12-24T05:33:35;7.85;;;3.15;;
19842;SDS011;10082;51.038;6.992;2022-12-24T05:36:02;9.43;;;2.83;;
19842;SDS011;10082;51.038;6.992;2022-12-24T05:38:29;8.38;;;3.13;;
19842;SDS011;10082;51.038;6.992;2022-12-24T05:40:56;10.32;;;3.20;;
19842;SDS011;10082;51.038;6.992;2022-12-24T05:43:22;10.85;;;2.80;;
19842;SDS011;10082;51.038;6.992;2022-12-24T05:45:50;8.15;;;3.22;;
19842;SDS011;10082;51.038;6.992;2022-12-24T05:48:18;8.38;;;2.55;;
19842;SDS011;10082;51.038;6.992;2022-12-24T05:50:45;11.68;;;2.88;;
19842;SDS011;10082;51.038;6.992;2022-12-24T05:53:12;9.75;;;2.80;;
19842;SDS011;10082;51.038;6.992;2022-12-24T05:55:39;9.10;;;2.95;;
19842;SDS011;10082;51.038;6.992;2022-12-24T05:58:06;6.82;;;2.75;;
19842;SDS011;10082;51.038;6.992;2022-12-24T06:00:33;8.00;;;2.60;;
19842;SDS011;10082;51.038;6.992;2022-12-24T06:03:00;9.18;;;2.92;;
19842;SDS011;10082;51.038;6.992;2022-12-24T06:05:28;7.03;;;2.40;;
19842;SDS011;10082;51.038;6.992;2022-12-24T06:08:02;10.88;;;2.60;;
19842;SDS011;10082;51.038;6.992;2022-12-24T06:10:29;6.93;;;2.63;;
19842;SDS011;10082;51.038;6.992;2022-12-24T06:12:56;10.25;;;2.78;;
19842;SDS011;10082;51.038;6.992;2022-12-24T06:15:23;7.35;;;2.65;;
19842;SDS011;10082;51.038;6.992;2022-12-24T06:17:50;8.95;;;3.25;;
19842;SDS011;10082;51.038;6.992;2022-12-24T06:20:17;8.18;;;2.92;;
19842;SDS011;10082;51.038;6.992;2022-12-24T06:22:46;10.48;;;3.22;;
19842;SDS011;10082;51.038;6.992;2022-12-24T06:25:13;10.00;;;4.75;;
19842;SDS011;10082;51.038;6.992;2022-12-24T06:27:40;7.25;;;2.65;;
19842;SDS011;10082;51.038;6.992;2022-12-24T06:30:07;8.23;;;2.75;;
19842;SDS011;10082;51.038;6.992;2022-12-24T06:32:35;8.57;;;2.65;;
19842;SDS011;10082;51.038;6.992;2022-12-24T06:35:03;10.00;;;3.25;;
19842;SDS011;10082;51.038;6.992;2022-12-24T06:37:31;12.13;;;3.55;;
19842;SDS011;10082;51.038;6.992;2022-12-24T06:39:59;13.23;;;3.88;;
19842;SDS011;10082;51.038;6.992;2022-12-24T06:42:26;14.50;;;4.22;;
19842;SDS011;10082;51.038;6.992;2022-12-24T06:44:53;13.52;;;3.97;;
19842;SDS011;10082;51.038;6.992;2022-12-24T06:47:20;12.68;;;4.70;;
19842;SDS011;10082;51.038;6.992;2022-12-24T06:49:47;13.10;;;3.78;;
19842;SDS011;10082;51.038;6.992;2022-12-24T06:52:14;12.50;;;3.95;;
19842;SDS011;10082;51.038;6.992;2022-12-24T06:54:41;12.20;;;4.22;;
19842;SDS011;10082;51.038;6.992;2022-12-24T06:57:10;14.05;;;4.15;;
19842;SDS011;10082;51.038;6.992;2022-12-24T06:59:37;15.80;;;4.13;;
19842;SDS011;10082;51.038;6.992;2022-12-24T07:02:04;10.55;;;4.15;;
19842;SDS011;10082;51.038;6.992;2022-12-24T07:04:31;15.02;;;4.45;;
19842;SDS011;10082;51.038;6.992;2022-12-24T07:06:58;16.38;;;4.15;;
19842;SDS011;10082;51.038;6.992;2022-12-24T07:09:25;16.40;;;5.03;;
19842;SDS011;10082;51.038;6.992;2022-12-24T07:11:52;17.15;;;4.40;;
19842;SDS011;10082;51.038;6.992;2022-12-24T07:14:21;13.35;;;4.32;;
19842;SDS011;10082;51.038;6.992;2022-12-24T07:16:48;19.67;;;4.55;;
19842;SDS011;10082;51.038;6.992;2022-12-24T07:19:15;12.57;;;3.97;;
19842;SDS011;10082;51.038;6.992;2022-12-24T07:21:42;17.92;;;4.82;;
19842;SDS011;10082;51.038;6.992;2022-12-24T07:24:09;15.00;;;3.85;;
19842;SDS011;10082;51.038;6.992;2022-12-24T07:26:36;14.13;;;4.80;;
19842;SDS011;10082;51.038;6.992;2022-12-24T07:29:03;16.75;;;4.53;;
19842;SDS011;10082;51.038;6.992;2022-12-24T07:31:31;11.73;;;4.13;;
19842;SDS011;10082;51.038;6.992;2022-12-24T07:33:58;15.07;;;4.80;;
19842;SDS011;10082;51.038;6.992;2022-12-24T07:36:25;16.00;;;4.53;;
19842;SDS011;10082;51.038;6.992;2022-12-24T07:38:53;13.82;;;4.30;;
19842;SDS011;10082;51.038;6.992;2022-12-24T07:41:21;14.63;;;4.70;;
19842;SDS011;10082;51.038;6.992;2022-12-24T07:43:48;16.63;;;4.65;;
19842;SDS011;10082;51.038;6.992;2022-12-24T07:46:15;15.85;;;4.22;;
19842;SDS011;10082;51.038;6.992;2022-12-24T07:48:44;14.20;;;4.30;;
19842;SDS011;10082;51.038;6.992;2022-12-24T07:51:11;18.52;;;4.65;;
19842;SDS011;10082;51.038;6.992;2022-12-24T07:53:38;13.32;;;3.97;;
19842;SDS011;10082;51.038;6.992;2022-12-24T07:56:11;16.15;;;4.40;;
19842;SDS011;10082;51.038;6.992;2022-12-24T07:58:39;15.88;;;4.50;;
19842;SDS011;10082;51.038;6.992;2022-12-24T08:01:06;15.32;;;4.65;;
19842;SDS011;10082;51.038;6.992;2022-12-24T08:03:34;15.57;;;4.20;;
19842;SDS011;10082;51.038;6.992;2022-12-24T08:06:03;15.13;;;4.88;;
19842;SDS011;10082;51.038;6.992;2022-12-24T08:08:30;15.85;;;4.70;;
19842;SDS011;10082;51.038;6.992;2022-12-24T08:10:59;12.05;;;4.22;;
19842;SDS011;10082;51.038;6.992;2022-12-24T08:13:28;13.73;;;4.00;;
19842;SDS011;10082;51.038;6.992;2022-12-24T08:15:55;18.80;;;4.60;;
19842;SDS011;10082;51.038;6.992;2022-12-24T08:18:22;13.98;;;4.40;;
19842;SDS011;10082;51.038;6.992;2022-12-24T08:20:49;13.25;;;4.35;;
19842;SDS011;10082;51.038;6.992;2022-12-24T08:23:17;14.85;;;4.63;;
19842;SDS011;10082;51.038;6.992;2022-12-24T08:25:46;14.45;;;4.60;;
19842;SDS011;10082;51.038;6.992;2022-12-24T08:28:14;13.18;;;4.60;;
19842;SDS011;10082;51.038;6.992;2022-12-24T08:30:42;12.77;;;4.50;;
19842;SDS011;10082;51.038;6.992;2022-12-24T08:33:09;16.90;;;4.75;;
19842;SDS011;10082;51.038;6.992;2022-12-24T08:35:36;14.13;;;4.57;;
19842;SDS011;10082;51.038;6.992;2022-12-24T08:38:03;17.67;;;5.28;;
19842;SDS011;10082;51.038;6.992;2022-12-24T08:40:32;14.55;;;4.22;;
19842;SDS011;10082;51.038;6.992;2022-12-24T08:43:00;13.32;;;4.43;;
19842;SDS011;10082;51.038;6.992;2022-12-24T08:45:28;12.73;;;4.25;;
19842;SDS011;10082;51.038;6.992;2022-12-24T08:47:55;13.23;;;4.25;;
19842;SDS011;10082;51.038;6.992;2022-12-24T08:50:24;12.52;;;4.30;;
19842;SDS011;10082;51.038;6.992;2022-12-24T08:52:52;15.07;;;4.95;;
19842;SDS011;10082;51.038;6.992;2022-12-24T08:55:19;14.68;;;4.32;;
19842;SDS011;10082;51.038;6.992;2022-12-24T08:57:48;17.40;;;4.55;;
19842;SDS011;10082;51.038;6.992;2022-12-24T09:00:15;20.02;;;5.35;;
19842;SDS011;10082;51.038;6.992;2022-12-24T09:02:42;13.55;;;4.47;;
19842;SDS011;10082;51.038;6.992;2022-12-24T09:05:09;16.23;;;4.53;;
19842;SDS011;10082;51.038;6.992;2022-12-24T09:07:36;14.80;;;4.47;;
19842;SDS011;10082;51.038;6.992;2022-12-24T09:10:05;15.20;;;4.93;;
19842;SDS011;10082;51.038;6.992;2022-12-24T09:12:33;15.85;;;4.75;;
19842;SDS011;10082;51.038;6.992;2022-12-24T09:15:02;15.93;;;4.53;;
19842;SDS011;10082;51.038;6.992;2022-12-24T09:17:32;18.45;;;4.97;;
19842;SDS011;10082;51.038;6.992;2022-12-24T09:19:59;15.02;;;4.55;;
19842;SDS011;10082;51.038;6.992;2022-12-24T09:22:26;14.65;;;4.30;;
19842;SDS011;10082;51.038;6.992;2022-12-24T09:24:53;12.32;;;4.65;;
19842;SDS011;10082;51.038;6.992;2022-12-24T09:27:23;18.40;;;5.18;;
19842;SDS011;10082;51.038;6.992;2022-12-24T09:29:50;14.63;;;4.55;;
19842;SDS011;10082;51.038;6.992;2022-12-24T09:32:19;14.73;;;4.32;;
19842;SDS011;10082;51.038;6.992;2022-12-24T09:34:46;13.55;;;4.70;;
19842;SDS011;10082;51.038;6.992;2022-12-24T09:37:13;16.45;;;4.90;;
19842;SDS011;10082;51.038;6.992;2022-12-24T09:39:40;15.70;;;5.13;;
19842;SDS011;10082;51.038;6.992;2022-12-24T09:42:14;15.93;;;4.82;;
19842;SDS011;10082;51.038;6.992;2022-12-24T09:44:50;14.20;;;4.55;;
19842;SDS011;10082;51.038;6.992;2022-12-24T09:47:27;17.45;;;5.10;;
19842;SDS011;10082;51.038;6.992;2022-12-24T09:49:58;15.25;;;4.55;;
19842;SDS011;10082;51.038;6.992;2022-12-24T09:52:29;12.77;;;5.00;;
19842;SDS011;10082;51.038;6.992;2022-12-24T09:55:02;15.15;;;4.32;;
19842;SDS011;10082;51.038;6.992;2022-12-24T09:57:34;14.88;;;5.28;;
19842;SDS011;10082;51.038;6.992;2022-12-24T10:00:04;12.55;;;4.82;;
19842;SDS011;10082;51.038;6.992;2022-12-24T10:02:43;17.45;;;5.32;;
19842;SDS011;10082;51.038;6.992;2022-12-24T10:05:12;16.88;;;4.95;;
19842;SDS011;10082;51.038;6.992;2022-12-24T10:07:42;15.90;;;5.10;;
19842;SDS011;10082;51.038;6.992;2022-12-24T10:10:19;16.83;;;4.85;;
19842;SDS011;10082;51.038;6.992;2022-12-24T10:12:56;11.20;;;4.28;;
19842;SDS011;10082;51.038;6.992;2022-12-24T10:15:33;19.30;;;5.43;;
19842;SDS011;10082;51.038;6.992;2022-12-24T10:18:07;13.90;;;4.60;;
19842;SDS011;10082;51.038;6.992;2022-12-24T10:20:46;21.08;;;4.90;;
19842;SDS011;10082;51.038;6.992;2022-12-24T10:23:20;16.92;;;5.07;;
19842;SDS011;10082;51.038;6.992;2022-12-24T10:25:52;15.73;;;5.55;;
19842;SDS011;10082;51.038;6.992;2022-12-24T10:28:30;16.90;;;5.45;;
19842;SDS011;10082;51.038;6.992;2022-12-24T10:31:03;14.95;;;5.03;;
19842;SDS011;10082;51.038;6.992;2022-12-24T10:33:36;19.42;;;4.70;;
19842;SDS011;10082;51.038;6.992;2022-12-24T10:36:07;14.07;;;5.05;;
19842;SDS011;10082;51.038;6.992;2022-12-24T10:38:40;15.20;;;4.68;;
19842;SDS011;10082;51.038;6.992;2022-12-24T10:41:07;15.27;;;4.70;;
19842;SDS011;10082;51.038;6.992;2022-12-24T10:43:35;21.85;;;6.13;;
19842;SDS011;10082;51.038;6.992;2022-12-24T10:46:09;17.42;;;5.15;;
19842;SDS011;10082;51.038;6.992;2022-12-24T10:48:44;17.42;;;5.28;;
19842;SDS011;10082;51.038;6.992;2022-12-24T10:51:19;15.98;;;5.28;;
19842;SDS011;10082;51.038;6.992;2022-12-24T10:53:51;14.32;;;4.70;;
19842;SDS011;10082;51.038;6.992;2022-12-24T10:56:24;14.75;;;5.00;;
19842;SDS011;10082;51.038;6.992;2022-12-24T10:58:52;15.50;;;4.88;;
19842;SDS011;10082;51.038;6.992;2022-12-24T11:01:20;18.08;;;4.80;;
19842;SDS011;10082;51.038;6.992;2022-12-24T11:04:15;21.90;;;5.38;;
19842;SDS011;10082;51.038;6.992;2022-12-24T11:06:56;13.38;;;4.75;;
19842;SDS011;10082;51.038;6.992;2022-12-24T11:09:26;15.95;;;6.00;;
19842;SDS011;10082;51.038;6.992;2022-12-24T11:11:54;15.43;;;4.63;;
19842;SDS011;10082;51.038;6.992;2022-12-24T11:14:22;18.90;;;5.50;;
19842;SDS011;10082;51.038;6.992;2022-12-24T11:16:51;17.95;;;5.45;;
19842;SDS011;10082;51.038;6.992;2022-12-24T11:19:25;16.58;;;5.28;;
19842;SDS011;10082;51.038;6.992;2022-12-24T11:21:57;16.30;;;4.57;;
19842;SDS011;10082;51.038;6.992;2022-12-24T11:24:26;12.90;;;5.30;;
19842;SDS011;10082;51.038;6.992;2022-12-24T11:30:10;16.65;;;5.13;;
19842;SDS011;10082;51.038;6.992;2022-12-24T11:32:45;13.15;;;4.38;;
19842;SDS011;10082;51.038;6.992;2022-12-24T11:35:16;16.17;;;4.75;;
19842;SDS011;10082;51.038;6.992;2022-12-24T11:37:46;16.58;;;5.13;;
19842;SDS011;10082;51.038;6.992;2022-12-24T11:40:20;12.05;;;4.60;;
19842;SDS011;10082;51.038;6.992;2022-12-24T11:42:50;19.38;;;5.20;;
19842;SDS011;10082;51.038;6.992;2022-12-24T11:45:25;18.02;;;4.95;;
19842;SDS011;10082;51.038;6.992;2022-12-24T11:47:54;18.00;;;5.03;;
19842;SDS011;10082;51.038;6.992;2022-12-24T11:50:25;16.42;;;4.90;;
19842;SDS011;10082;51.038;6.992;2022-12-24T11:53:01;15.50;;;4.60;;
19842;SDS011;10082;51.038;6.992;2022-12-24T11:55:36;13.07;;;4.35;;
19842;SDS011;10082;51.038;6.992;2022-12-24T11:58:12;14.65;;;4.70;;
19842;SDS011;10082;51.038;6.992;2022-12-24T12:00:45;15.02;;;4.47;;
19842;SDS011;10082;51.038;6.992;2022-12-24T12:03:22;17.40;;;4.55;;
19842;SDS011;10082;51.038;6.992;2022-12-24T12:05:58;19.55;;;4.57;;
19842;SDS011;10082;51.038;6.992;2022-12-24T12:08:27;14.52;;;4.57;;
19842;SDS011;10082;51.038;6.992;2022-12-24T12:10:56;13.48;;;4.47;;
19842;SDS011;10082;51.038;6.992;2022-12-24T12:13:26;15.50;;;4.70;;
19842;SDS011;10082;51.038;6.992;2022-12-24T12:16:01;15.18;;;4.40;;
19842;SDS011;10082;51.038;6.992;2022-12-24T12:18:36;17.45;;;5.05;;
19842;SDS011;10082;51.038;6.992;2022-12-24T12:21:08;15.55;;;5.10;;
19842;SDS011;10082;51.038;6.992;2022-12-24T12:23:39;19.80;;;5.03;;
19842;SDS011;10082;51.038;6.992;2022-12-24T12:26:12;18.25;;;5.10;;
19842;SDS011;10082;51.038;6.992;2022-12-24T12:28:45;17.40;;;4.95;;
19842;SDS011;10082;51.038;6.992;2022-12-24T12:31:16;15.48;;;5.25;;
19842;SDS011;10082;51.038;6.992;2022-12-24T12:33:47;15.18;;;4.85;;
19842;SDS011;10082;51.038;6.992;2022-12-24T12:36:22;19.13;;;5.10;;
19842;SDS011;10082;51.038;6.992;2022-12-24T12:38:52;13.85;;;5.05;;
19842;SDS011;10082;51.038;6.992;2022-12-24T12:41:22;16.63;;;5.25;;
19842;SDS011;10082;51.038;6.992;2022-12-24T12:44:03;14.93;;;4.47;;
19842;SDS011;10082;51.038;6.992;2022-12-24T12:46:50;16.23;;;4.30;;
19842;SDS011;10082;51.038;6.992;2022-12-24T12:49:33;15.45;;;4.97;;
19842;SDS011;10082;51.038;6.992;2022-12-24T12:52:14;13.82;;;4.78;;
19842;SDS011;10082;51.038;6.992;2022-12-24T12:54:56;16.95;;;4.97;;
19842;SDS011;10082;51.038;6.992;2022-12-24T12:57:33;12.75;;;4.60;;
19842;SDS011;10082;51.038;6.992;2022-12-24T13:00:04;15.35;;;4.47;;
19842;SDS011;10082;51.038;6.992;2022-12-24T13:02:40;15.25;;;3.90;;
19842;SDS011;10082;51.038;6.992;2022-12-24T13:05:29;16.40;;;4.45;;
19842;SDS011;10082;51.038;6.992;2022-12-24T13:08:23;17.05;;;4.43;;
19842;SDS011;10082;51.038;6.992;2022-12-24T13:11:10;13.65;;;4.65;;
19842;SDS011;10082;51.038;6.992;2022-12-24T13:13:51;14.35;;;4.43;;
19842;SDS011;10082;51.038;6.992;2022-12-24T13:16:48;18.23;;;4.30;;
19842;SDS011;10082;51.038;6.992;2022-12-24T13:19:33;14.55;;;4.28;;
19842;SDS011;10082;51.038;6.992;2022-12-24T13:22:13;10.35;;;3.67;;
19842;SDS011;10082;51.038;6.992;2022-12-24T13:24:47;12.13;;;3.63;;
19842;SDS011;10082;51.038;6.992;2022-12-24T13:27:17;12.52;;;3.95;;
19842;SDS011;10082;51.038;6.992;2022-12-24T13:29:52;16.85;;;4.13;;
19842;SDS011;10082;51.038;6.992;2022-12-24T13:32:38;13.27;;;4.00;;
19842;SDS011;10082;51.038;6.992;2022-12-24T13:35:35;14.40;;;4.43;;
19842;SDS011;10082;51.038;6.992;2022-12-24T13:44:02;14.07;;;4.30;;
19842;SDS011;10082;51.038;6.992;2022-12-24T13:46:47;11.70;;;4.18;;
19842;SDS011;10082;51.038;6.992;2022-12-24T13:49:18;15.40;;;3.63;;
19842;SDS011;10082;51.038;6.992;2022-12-24T13:51:47;13.57;;;4.63;;
19842;SDS011;10082;51.038;6.992;2022-12-24T13:54:16;14.32;;;4.43;;
19842;SDS011;10082;51.038;6.992;2022-12-24T13:56:52;14.20;;;4.70;;
19842;SDS011;10082;51.038;6.992;2022-12-24T13:59:25;14.50;;;4.35;;
19842;SDS011;10082;51.038;6.992;2022-12-24T14:02:00;12.48;;;4.30;;
19842;SDS011;10082;51.038;6.992;2022-12-24T14:04:29;12.15;;;3.92;;
19842;SDS011;10082;51.038;6.992;2022-12-24T14:07:01;15.00;;;4.28;;
19842;SDS011;10082;51.038;6.992;2022-12-24T14:09:30;14.43;;;4.13;;
19842;SDS011;10082;51.038;6.992;2022-12-24T14:12:15;12.07;;;4.28;;
19842;SDS011;10082;51.038;6.992;2022-12-24T14:14:59;17.55;;;4.82;;
19842;SDS011;10082;51.038;6.992;2022-12-24T14:18:05;14.18;;;4.03;;
19842;SDS011;10082;51.038;6.992;2022-12-24T14:20:34;13.52;;;4.10;;
19842;SDS011;10082;51.038;6.992;2022-12-24T14:23:03;14.88;;;4.13;;
19842;SDS011;10082;51.038;6.992;2022-12-24T14:25:31;13.48;;;3.90;;
19842;SDS011;10082;51.038;6.992;2022-12-24T14:27:59;13.13;;;3.90;;
19842;SDS011;10082;51.038;6.992;2022-12-24T14:30:31;11.38;;;4.07;;
19842;SDS011;10082;51.038;6.992;2022-12-24T14:32:58;11.70;;;3.58;;
19842;SDS011;10082;51.038;6.992;2022-12-24T14:35:27;10.05;;;3.70;;
19842;SDS011;10082;51.038;6.992;2022-12-24T14:37:56;13.65;;;4.15;;
19842;SDS011;10082;51.038;6.992;2022-12-24T14:40:26;10.50;;;4.15;;
19842;SDS011;10082;51.038;6.992;2022-12-24T14:42:56;13.63;;;3.92;;
19842;SDS011;10082;51.038;6.992;2022-12-24T14:45:28;12.40;;;3.47;;
19842;SDS011;10082;51.038;6.992;2022-12-24T14:48:04;13.43;;;4.05;;
19842;SDS011;10082;51.038;6.992;2022-12-24T14:50:49;12.38;;;3.80;;
19842;SDS011;10082;51.038;6.992;2022-12-24T14:53:27;14.80;;;4.45;;
19842;SDS011;10082;51.038;6.992;2022-12-24T14:56:13;12.23;;;4.35;;
19842;SDS011;10082;51.038;6.992;2022-12-24T14:58:42;14.35;;;3.85;;
19842;SDS011;10082;51.038;6.992;2022-12-24T15:04:00;12.38;;;4.03;;
19842;SDS011;10082;51.038;6.992;2022-12-24T15:06:32;11.23;;;3.97;;
19842;SDS011;10082;51.038;6.992;2022-12-24T15:09:01;14.30;;;4.32;;
19842;SDS011;10082;51.038;6.992;2022-12-24T15:11:28;16.27;;;4.50;;
19842;SDS011;10082;51.038;6.992;2022-12-24T15:13:57;13.82;;;3.97;;
19842;SDS011;10082;51.038;6.992;2022-12-24T15:16:26;15.95;;;4.50;;
19842;SDS011;10082;51.038;6.992;2022-12-24T15:18:56;13.27;;;4.03;;
19842;SDS011;10082;51.038;6.992;2022-12-24T15:21:28;13.48;;;4.22;;
19842;SDS011;10082;51.038;6.992;2022-12-24T15:23:58;16.50;;;4.53;;
19842;SDS011;10082;51.038;6.992;2022-12-24T15:26:26;12.40;;;3.85;;